Aérodrome :
LOGIN :

S'inscrire | Disclaimer

   EN    FR    IT 

 










Légende :    VFR   VFR Marginal   IFR   IFR Intensif   IFR Très Intensif
Visi : 
Plafond : 
>= 8 km
>= 3000ft
5 à 8 km
1000 à 3000 ft
1500m à 5 km
500 à 1000 ft
800 à 1500m
200 à 500 ft
< 800m
< 200 ft
Symboles :   Orages  Brouillard  Fortes neiges  Fortes précipitations  Vent > 20 kt
SIGMETs :   Divers  Orages  Givrage  Turbulence  Onde Orograph.  Cendres Volcan.






- Altitude de l'aérodrome : 992 ft


LIRV - Roma Viterbo Air Force Base (military)

DERNIER METAR :
  • 160855Z 18009KT 9999 BKN018 SCT040 13/11 Q1021

METARs EXPIRÉS :
  • 160755Z 19007KT 9999 SCT018 SCT033 13/12 Q1021 RMK BKN MON E SE CLD CIME NC VIS MIN 9999 WIND THR04 /////KT BLU
  • 160655Z 17008KT 9999 SCT018 SCT033 13/11 Q1020

TAF TAF LIRV
Valide du 16 à 09h jusqu'au 16 à 18h UTC


160800Z 1609/1618 16008KT 9999 SCT025
PROB40
TEMPO 1609/1612 RA SCT020 BKN035



MET'MAP, la Météo Aéronautique d'un coup d'oeil ! - Copyright ORBIFLY Décembre 2007 - Disclaimer

ORBIFLY MET'MAP TEAM :

Programmation & Développement : Alexandra Zaïnal
Sur une idée originale de : Baudouin d'Aumeries
Assistance à la programmation : Marc-Olivier Méhu
Soutien technique & logistique : Manuel Goepfert

Contact : metmap@orbifly.com




SOURCES & CREDITS :

   NOAA